Flugplatz Nardt

Für EDAT sind keine METAR/TAF Berichte vorhanden.
Es werden die Flugwettermeldungen vom Flugplatz Dresden in 46 km Entfernung angezeigt.

Bericht für EDDC

vom 21.07. um 20:20 UTC

Wind 1 kt aus 310°

Sichtweite 10 km oder mehr

gute Sicht, keine Wolken < 5000 ft, keine CB, keine Wettererscheinungen (CAVOK)

Temperatur 20.0°C

Taupunkt 12.0°C

Luftfeuchtigkeit 60%

Luftdruck 1022 hPa

keine wesentliche Wetteränderung innerhalb den nächsten 2 Stunden zu erwarten

EDDC 212020Z 31001KT CAVOK 20/12 Q1022 NOSIG

Prognose für EDDC

vom 21.07. um 00:00 UTC

Zwischen 00:00 UTC und 00:00 UTC

Wind 6 kt aus 320°

Sichtweite 10 km oder mehr

keine signifikanten Wettererscheinungen

keine Wolken


Zwischen 00:00 und 00:00 UTC übergehend zu

Wind 4 kt aus 230°

Sichtweite 10 km oder mehr

keine signifikanten Wettererscheinungen

keine Wolken


Am 22.07. zwischen 00:00 und 00:00 UTC übergehend zu

Wind 6 kt aus 290°

Sichtweite 10 km oder mehr

keine signifikanten Wettererscheinungen

keine Wolken

TAF EDDC 211700Z 2118/2218 32006KT CAVOK BECMG 2118/2120 23004KT BECMG 2208/2210 29006KT
Impressum